createdAt,value
2022-08-02T00:00:40.595Z,29.67
2022-08-02T00:05:42.486Z,29.60
2022-08-02T00:10:55.317Z,29.60
2022-08-02T00:15:57.212Z,29.62
2022-08-02T00:20:59.254Z,29.51
2022-08-02T00:26:01.272Z,29.35
2022-08-02T00:31:03.299Z,29.30
2022-08-02T00:36:05.290Z,29.30
2022-08-02T00:41:16.807Z,29.35
2022-08-02T00:46:20.020Z,29.36
2022-08-02T00:51:22.010Z,29.25
2022-08-02T00:56:24.248Z,28.98
2022-08-02T01:01:38.621Z,28.93
2022-08-02T01:07:00.505Z,28.86
2022-08-02T01:12:02.666Z,28.63
2022-08-02T01:17:09.340Z,28.62
2022-08-02T01:22:58.486Z,28.59
2022-08-02T01:28:18.966Z,28.50
2022-08-02T01:33:21.630Z,28.43
2022-08-02T01:38:28.841Z,28.33
2022-08-02T01:43:31.641Z,28.29
2022-08-02T01:48:33.400Z,28.27
2022-08-02T01:53:35.960Z,28.28
2022-08-02T01:58:40.039Z,28.21
2022-08-02T02:03:42.350Z,28.18
2022-08-02T02:08:44.542Z,28.16
2022-08-02T02:13:47.697Z,28.10
2022-08-02T02:18:50.391Z,28.08
2022-08-02T02:23:52.383Z,28.01
2022-08-02T02:28:55.583Z,28.00
2022-08-02T02:34:01.934Z,27.97
2022-08-02T02:39:13.087Z,27.92
2022-08-02T02:44:19.039Z,27.89
2022-08-02T02:49:22.147Z,27.84
2022-08-02T02:54:30.654Z,27.82
2022-08-02T02:59:42.595Z,27.80
2022-08-02T03:04:57.012Z,27.69
2022-08-02T03:10:00.073Z,27.65
2022-08-02T03:15:05.346Z,27.65
2022-08-02T03:20:18.285Z,27.59
2022-08-02T03:25:20.392Z,27.51
2022-08-02T03:30:24.905Z,27.48
2022-08-02T03:35:26.767Z,27.49
2022-08-02T03:40:28.729Z,27.48
2022-08-02T03:45:30.667Z,27.36
2022-08-02T03:50:33.772Z,27.35
2022-08-02T03:55:36.217Z,27.29
2022-08-02T04:00:38.145Z,27.26
2022-08-02T04:06:03.258Z,27.19
2022-08-02T04:11:21.079Z,27.12
2022-08-02T04:16:28.384Z,27.08
2022-08-02T04:21:48.431Z,27.06
2022-08-02T04:27:06.703Z,27.03
2022-08-02T04:32:20.468Z,26.97
2022-08-02T04:37:22.634Z,26.88
2022-08-02T04:42:25.964Z,26.89
2022-08-02T04:48:02.034Z,26.87
2022-08-02T04:52:49.888Z,26.85
2022-08-02T04:57:58.281Z,26.78
2022-08-02T05:03:00.624Z,26.73
2022-08-02T05:08:03.288Z,26.72
2022-08-02T05:13:06.287Z,26.74
2022-08-02T05:18:08.246Z,26.72
2022-08-02T05:23:10.176Z,26.70
2022-08-02T05:28:12.097Z,26.67
2022-08-02T05:33:14.037Z,26.67
2022-08-02T05:38:15.935Z,26.58
2022-08-02T05:43:17.784Z,26.53
2022-08-02T05:48:25.438Z,26.41
2022-08-02T05:53:29.753Z,26.47
2022-08-02T05:58:39.211Z,26.42
2022-08-02T06:03:50.500Z,26.35
2022-08-02T06:08:59.584Z,26.35
2022-08-02T06:14:03.858Z,26.45
2022-08-02T06:19:06.382Z,26.51
2022-08-02T06:24:10.591Z,26.54
2022-08-02T06:29:13.099Z,26.67
2022-08-02T06:34:15.017Z,26.83
2022-08-02T06:39:24.021Z,26.93
2022-08-02T06:49:52.921Z,27.16
2022-08-02T06:55:00.354Z,27.22
2022-08-02T07:00:06.794Z,27.38
2022-08-02T07:05:09.603Z,27.45
2022-08-02T07:10:11.454Z,27.56
2022-08-02T07:15:13.470Z,27.67
2022-08-02T07:20:15.394Z,27.71
2022-08-02T07:25:17.668Z,27.70
2022-08-02T07:30:19.506Z,27.70
2022-08-02T07:35:22.284Z,27.74
2022-08-02T07:40:25.356Z,27.81
2022-08-02T07:45:27.681Z,28.04
2022-08-02T07:50:30.083Z,28.22
2022-08-02T07:55:40.032Z,28.28
2022-08-02T08:00:43.738Z,28.40
2022-08-02T08:05:46.034Z,28.39
2022-08-02T08:10:48.197Z,28.59
2022-08-02T08:15:52.305Z,28.83
2022-08-02T08:20:54.718Z,29.07
2022-08-02T08:25:56.630Z,29.49
2022-08-02T08:30:58.689Z,29.88
2022-08-02T08:36:02.472Z,30.17
2022-08-02T08:41:04.606Z,30.71
2022-08-02T08:46:12.342Z,31.14
2022-08-02T08:51:16.781Z,32.01
2022-08-02T08:56:19.406Z,32.67
2022-08-02T09:01:21.793Z,33.32
2022-08-02T09:06:24.373Z,33.95
2022-08-02T09:11:26.818Z,34.81
2022-08-02T09:16:41.672Z,35.32
2022-08-02T09:21:43.632Z,34.69
2022-08-02T09:26:45.910Z,33.27
2022-08-02T09:31:49.441Z,35.07
2022-08-02T09:36:54.711Z,35.34
2022-08-02T09:42:10.808Z,36.55
2022-08-02T09:47:17.164Z,36.67
2022-08-02T09:52:42.983Z,36.09
2022-08-02T09:57:50.942Z,36.18
2022-08-02T10:03:06.160Z,37.17
2022-08-02T10:08:08.277Z,38.36
2022-08-02T10:13:10.988Z,37.77
2022-08-02T10:18:29.032Z,37.24
2022-08-02T10:23:36.790Z,36.17
2022-08-02T10:28:38.876Z,36.16
2022-08-02T10:33:41.694Z,35.84
2022-08-02T10:38:44.790Z,36.18
2022-08-02T10:43:48.385Z,36.88
2022-08-02T10:49:36.686Z,37.02
2022-08-02T10:54:40.741Z,37.87
2022-08-02T10:59:42.803Z,38.86
2022-08-02T11:04:44.688Z,38.31
2022-08-02T11:09:49.099Z,38.29
2022-08-02T11:15:07.555Z,37.08
2022-08-02T11:20:11.258Z,37.58
2022-08-02T11:25:22.237Z,38.23
2022-08-02T11:30:26.628Z,39.15
2022-08-02T11:35:48.026Z,39.24
2022-08-02T11:40:50.037Z,38.74
2022-08-02T11:46:03.743Z,38.72
2022-08-02T11:51:10.995Z,39.65
2022-08-02T11:56:13.458Z,39.17
2022-08-02T12:01:23.629Z,39.24
2022-08-02T12:06:26.157Z,38.97
2022-08-02T12:11:28.370Z,39.02
2022-08-02T12:16:59.724Z,38.60
2022-08-02T12:22:14.998Z,38.30
2022-08-02T12:27:37.105Z,37.85
2022-08-02T12:32:39.784Z,37.65
2022-08-02T12:37:46.434Z,37.64
2022-08-02T12:42:54.107Z,37.46
2022-08-02T12:47:57.796Z,37.45
2022-08-02T12:53:12.974Z,37.32
2022-08-02T12:58:14.936Z,37.26
2022-08-02T13:04:10.527Z,37.46
2022-08-02T13:08:42.772Z,37.33
2022-08-02T13:13:48.342Z,37.50
2022-08-02T13:18:51.242Z,37.54
2022-08-02T13:23:55.090Z,37.74
2022-08-02T13:28:58.579Z,37.59
2022-08-02T13:34:00.999Z,37.60
2022-08-02T13:39:04.887Z,37.33
2022-08-02T13:44:10.472Z,37.26
2022-08-02T13:49:18.894Z,37.29
2022-08-02T13:54:21.005Z,37.41
2022-08-02T13:59:57.560Z,37.11
2022-08-02T14:04:44.941Z,37.02
2022-08-02T14:09:47.832Z,37.33
2022-08-02T14:14:49.991Z,37.58
2022-08-02T14:19:52.030Z,37.53
2022-08-02T14:24:53.959Z,37.75
2022-08-02T14:29:57.530Z,37.55
2022-08-02T14:34:59.579Z,37.37
2022-08-02T14:40:01.520Z,37.20
2022-08-02T14:45:04.051Z,37.01
2022-08-02T14:50:06.180Z,36.99
2022-08-02T14:55:08.569Z,36.59
2022-08-02T15:00:11.077Z,37.02
2022-08-02T15:05:13.139Z,37.05
2022-08-02T15:10:15.097Z,37.07
2022-08-02T15:15:17.137Z,37.07
2022-08-02T15:20:25.379Z,37.07
2022-08-02T15:25:28.137Z,36.98
2022-08-02T15:30:30.373Z,37.16
2022-08-02T15:35:33.151Z,37.38
2022-08-02T15:40:35.350Z,37.51
2022-08-02T15:45:37.355Z,37.33
2022-08-02T15:50:39.962Z,37.64
2022-08-02T15:55:52.746Z,37.48
2022-08-02T16:01:04.128Z,37.16
2022-08-02T16:06:06.134Z,37.10
2022-08-02T16:11:08.146Z,37.54
2022-08-02T16:16:13.793Z,37.72
2022-08-02T16:21:15.784Z,37.48
2022-08-02T16:26:17.826Z,37.75
2022-08-02T16:31:20.079Z,37.62
2022-08-02T16:36:22.117Z,37.43
2022-08-02T16:41:24.311Z,37.71
2022-08-02T16:46:46.306Z,37.53
2022-08-02T16:51:53.514Z,37.70
2022-08-02T16:56:55.415Z,37.87
2022-08-02T17:02:03.204Z,37.78
2022-08-02T17:08:07.930Z,37.61
2022-08-02T17:12:36.129Z,37.55
2022-08-02T17:17:40.556Z,37.54
2022-08-02T17:22:45.081Z,37.61
2022-08-02T17:27:47.214Z,38.02
2022-08-02T17:32:59.421Z,38.04
2022-08-02T17:38:01.926Z,37.92
2022-08-02T17:43:14.252Z,37.64
2022-08-02T17:48:16.849Z,37.08
2022-08-02T17:53:19.090Z,36.33
2022-08-02T17:58:21.017Z,33.88
2022-08-02T18:03:22.985Z,30.77
2022-08-02T18:08:25.128Z,29.47
2022-08-02T18:13:32.837Z,29.18
2022-08-02T18:18:35.167Z,29.16
2022-08-02T18:23:38.582Z,29.13
2022-08-02T18:28:46.297Z,29.30
2022-08-02T18:34:00.310Z,29.34
2022-08-02T18:39:08.121Z,29.54
2022-08-02T18:44:10.945Z,29.83
2022-08-02T18:49:17.718Z,29.91
2022-08-02T18:54:26.639Z,29.79
2022-08-02T18:59:36.708Z,29.82
2022-08-02T19:04:43.697Z,30.02
2022-08-02T19:09:49.607Z,30.17
2022-08-02T19:14:51.765Z,30.34
2022-08-02T19:19:56.072Z,30.31
2022-08-02T19:25:01.256Z,30.29
2022-08-02T19:30:07.412Z,30.43
2022-08-02T19:35:19.910Z,30.24
2022-08-02T19:40:32.071Z,30.34
2022-08-02T19:45:48.919Z,30.46
2022-08-02T19:50:56.423Z,30.60
2022-08-02T19:56:02.914Z,30.61
2022-08-02T20:01:05.490Z,30.66
2022-08-02T20:06:10.096Z,30.56
2022-08-02T20:11:14.991Z,30.58
2022-08-02T20:16:27.285Z,30.50
2022-08-02T20:21:36.084Z,30.48
2022-08-02T20:26:47.162Z,30.50
2022-08-02T20:31:49.858Z,30.34
2022-08-02T20:36:54.029Z,30.03
2022-08-02T20:41:57.190Z,29.26
2022-08-02T20:47:01.571Z,28.07
2022-08-02T20:52:03.775Z,27.25
2022-08-02T20:57:36.211Z,25.98
2022-08-02T21:02:47.661Z,25.44
2022-08-02T21:07:53.463Z,25.43
2022-08-02T21:12:56.840Z,25.19
2022-08-02T21:18:13.962Z,25.05
2022-08-02T21:23:20.840Z,24.96
2022-08-02T21:28:22.671Z,24.90
2022-08-02T21:33:25.009Z,24.96
2022-08-02T21:43:50.928Z,25.19
2022-08-02T21:48:52.883Z,25.31
2022-08-02T21:54:18.886Z,25.32
2022-08-02T21:59:17.719Z,25.37
2022-08-02T22:04:19.707Z,25.44
2022-08-02T22:09:44.381Z,25.58
2022-08-02T22:14:54.611Z,25.74
2022-08-02T22:19:57.585Z,25.92
2022-08-02T22:24:59.556Z,26.04
2022-08-02T22:30:04.196Z,26.09
2022-08-02T22:35:08.758Z,26.08
2022-08-02T22:40:12.398Z,26.10
2022-08-02T22:45:14.306Z,26.13
2022-08-02T22:50:16.300Z,26.20
2022-08-02T22:55:21.265Z,26.33
2022-08-02T22:59:03.237Z,24.94
2022-08-02T23:00:23.950Z,26.37
2022-08-02T23:05:25.939Z,26.45
2022-08-02T23:10:28.383Z,26.41
2022-08-02T23:15:50.147Z,26.48
2022-08-02T23:20:52.120Z,26.44
2022-08-02T23:25:54.114Z,26.41
2022-08-02T23:30:56.124Z,26.39
2022-08-02T23:35:58.065Z,26.45
2022-08-02T23:41:04.111Z,26.42
2022-08-02T23:46:09.590Z,26.36
2022-08-02T23:51:11.793Z,26.46
2022-08-02T23:56:23.981Z,26.56
